Time;durP1;ratioP1;P1;durP2;ratioP2;P2;SDS_P1;SDS_P2;PMS_P1;PMS_P2;Temp;Humidity;BMP_temperature;BMP_pressure;BME280_temperature;BME280_humidity;BME280_pressure;Samples;Min_cycle;Max_cycle;Signal;HPM_P1;HPM_P2
2024/01/08 00:02:02;;;;;;;7.80;3.10;;;;;;;-2.65;100.00;103075.19;4986741;28;19924;-77
2024/01/08 00:04:27;;;;;;;5.82;2.95;;;;;;;-2.66;100.00;103084.03;4987625;28;20091;-73
2024/01/08 00:06:53;;;;;;;4.82;2.63;;;;;;;-2.67;100.00;103086.78;5005853;28;20029;-74
2024/01/08 00:09:20;;;;;;;8.60;2.85;;;;;;;-2.70;100.00;103085.25;5004950;28;20037;-74
2024/01/08 00:11:46;;;;;;;5.93;3.00;;;;;;;-2.68;100.00;103090.38;5022348;28;20057;-74
2024/01/08 00:14:12;;;;;;;5.03;2.60;;;;;;;-2.68;100.00;103088.56;4989740;28;20061;-73
2024/01/08 00:16:37;;;;;;;5.32;3.08;;;;;;;-2.66;100.00;103078.78;5002245;28;20048;-74
2024/01/08 00:19:03;;;;;;;6.05;3.03;;;;;;;-2.67;100.00;103079.75;5002187;28;20043;-75
2024/01/08 00:21:28;;;;;;;6.18;3.40;;;;;;;-2.70;100.00;103090.50;4988153;28;20033;-74
2024/01/08 00:23:55;;;;;;;6.55;3.03;;;;;;;-2.68;100.00;103100.84;4989360;28;20042;-74
2024/01/08 00:26:21;;;;;;;7.20;3.33;;;;;;;-2.68;100.00;103106.94;5005090;28;20079;-73
2024/01/08 00:28:49;;;;;;;5.35;3.15;;;;;;;-2.68;100.00;103095.63;4985581;28;20036;-74
2024/01/08 00:31:16;;;;;;;5.15;3.20;;;;;;;-2.70;100.00;103093.13;5005607;28;20033;-74
2024/01/08 00:33:42;;;;;;;6.75;3.28;;;;;;;-2.68;100.00;103100.84;4983873;28;20044;-73
2024/01/08 00:36:07;;;;;;;8.02;3.53;;;;;;;-2.68;100.00;103103.47;5003853;28;20344;-76
2024/01/08 00:38:34;;;;;;;7.03;3.92;;;;;;;-2.73;100.00;103103.84;4971810;28;20140;-76
2024/01/08 00:40:59;;;;;;;5.75;3.58;;;;;;;-2.70;100.00;103097.53;4982508;28;20037;-74
2024/01/08 00:43:25;;;;;;;7.35;3.40;;;;;;;-2.70;100.00;103098.38;5004846;28;20037;-75
2024/01/08 00:45:50;;;;;;;7.82;4.03;;;;;;;-2.73;100.00;103095.97;4968818;28;20140;-73
2024/01/08 00:48:16;;;;;;;6.05;3.40;;;;;;;-2.75;100.00;103105.78;5023234;28;20036;-77
2024/01/08 00:50:42;;;;;;;6.22;3.25;;;;;;;-2.75;100.00;103103.16;4987446;28;20163;-74
2024/01/08 00:53:09;;;;;;;7.90;3.33;;;;;;;-2.76;100.00;103104.09;4971259;28;20033;-75
2024/01/08 00:55:35;;;;;;;5.63;3.10;;;;;;;-2.77;100.00;103113.75;5004234;28;20128;-75
2024/01/08 00:58:01;;;;;;;4.90;2.95;;;;;;;-2.79;100.00;103109.59;4987513;28;20801;-77
2024/01/08 01:00:27;;;;;;;4.57;2.50;;;;;;;-2.77;100.00;103115.56;5009636;28;20176;-75
2024/01/08 01:02:53;;;;;;;5.10;2.88;;;;;;;-2.80;100.00;103121.88;5006513;28;20033;-74
2024/01/08 01:05:19;;;;;;;6.55;2.60;;;;;;;-2.80;100.00;103118.41;4985492;28;20538;-75
2024/01/08 01:07:44;;;;;;;7.57;3.65;;;;;;;-2.80;100.00;103118.41;4968213;28;20057;-74
2024/01/08 01:10:10;;;;;;;4.40;2.35;;;;;;;-2.83;100.00;103122.13;5004161;28;20059;-76
2024/01/08 01:12:36;;;;;;;5.68;2.90;;;;;;;-2.81;100.00;103127.25;4989842;28;20532;-75
2024/01/08 01:15:01;;;;;;;4.88;2.72;;;;;;;-2.81;100.00;103122.81;5003326;28;20080;-74
2024/01/08 01:17:28;;;;;;;5.95;2.65;;;;;;;-2.82;100.00;103125.56;5021469;28;20033;-72
2024/01/08 01:19:54;;;;;;;6.10;2.55;;;;;;;-2.83;100.00;103124.75;5003539;28;20041;-73
2024/01/08 01:22:20;;;;;;;5.10;2.53;;;;;;;-2.85;100.00;103125.81;4988465;28;20041;-74
2024/01/08 01:24:46;;;;;;;;;;;;;;;-2.86;100.00;103118.91;5019270;28;20044;-73
2024/01/08 01:27:13;;;;;;;4.75;2.55;;;;;;;-2.87;100.00;103122.47;5020471;28;19917;-74
2024/01/08 01:29:40;;;;;;;6.78;3.08;;;;;;;-2.86;100.00;103124.16;4988318;28;20494;-74
2024/01/08 01:32:07;;;;;;;4.93;2.72;;;;;;;-2.87;100.00;103125.09;5005491;28;20076;-73
2024/01/08 01:34:33;;;;;;;6.57;2.67;;;;;;;-2.85;100.00;103133.69;5020284;28;20045;-77
2024/01/08 01:37:00;;;;;;;3.50;2.00;;;;;;;-2.85;100.00;103128.44;5005474;28;20672;-75
2024/01/08 01:39:25;;;;;;;5.22;2.55;;;;;;;-2.83;100.00;103135.25;5001884;28;20506;-73
2024/01/08 01:41:52;;;;;;;4.22;2.28;;;;;;;-2.84;100.00;103138.00;4984939;28;20389;-73
2024/01/08 01:44:17;;;;;;;4.20;2.47;;;;;;;-2.81;100.00;103137.72;5001367;28;20129;-74
2024/01/08 01:46:46;;;;;;;6.38;2.83;;;;;;;-2.81;100.00;103133.31;4984382;28;20038;-73
2024/01/08 01:49:14;;;;;;;5.68;2.70;;;;;;;-2.81;100.00;103135.09;4998799;28;20036;-75
2024/01/08 01:51:46;;;;;;;3.90;2.53;;;;;;;-2.81;100.00;103133.31;4984687;28;20046;-75
2024/01/08 01:54:15;;;;;;;5.63;2.33;;;;;;;-2.79;100.00;103134.00;5003726;28;20517;-75
2024/01/08 01:56:44;;;;;;;6.47;2.80;;;;;;;-2.82;100.00;103138.69;4984556;28;20041;-74
2024/01/08 01:59:10;;;;;;;5.15;2.60;;;;;;;-2.78;100.00;103147.97;4964797;28;20570;-76
2024/01/08 02:01:36;;;;;;;4.97;2.65;;;;;;;-2.81;100.00;103150.84;4985072;28;20846;-75
2024/01/08 02:04:03;;;;;;;6.38;2.25;;;;;;;-2.79;100.00;103147.13;5003007;28;20037;-74
2024/01/08 02:06:29;;;;;;;4.40;2.17;;;;;;;-2.78;100.00;103137.47;5014716;28;20044;-74
2024/01/08 02:08:55;;;;;;;4.47;2.10;;;;;;;-2.78;100.00;103145.34;5017060;28;20145;-73
2024/01/08 02:11:21;;;;;;;5.82;2.53;;;;;;;-2.78;100.00;103140.97;4999723;28;20534;-74
2024/01/08 02:13:50;;;;;;;5.50;3.05;;;;;;;-2.76;100.00;103140.81;4988028;28;20131;-73
2024/01/08 02:16:17;;;;;;;5.85;2.60;;;;;;;-2.80;100.00;103131.53;4998203;28;20675;-74
2024/01/08 02:18:44;;;;;;;4.25;2.67;;;;;;;-2.77;100.00;103145.25;5002833;28;20041;-74
2024/01/08 02:21:09;;;;;;;5.35;2.70;;;;;;;-2.79;100.00;103135.81;4984778;28;20040;-73
2024/01/08 02:23:35;;;;;;;4.35;2.58;;;;;;;-2.78;100.00;103140.09;5017462;28;20776;-73
2024/01/08 02:26:01;;;;;;;4.50;2.60;;;;;;;-2.75;100.00;103134.63;5018900;28;20037;-76
2024/01/08 02:28:27;;;;;;;5.80;2.45;;;;;;;-2.74;100.00;103136.28;4988637;28;20094;-74
2024/01/08 02:30:55;;;;;;;5.45;2.80;;;;;;;-2.73;100.00;103144.97;4998101;28;20180;-75
2024/01/08 02:33:20;;;;;;;5.93;2.47;;;;;;;-2.73;100.00;103143.19;4999200;28;20049;-74
2024/01/08 02:35:46;;;;;;;5.50;2.85;;;;;;;-2.74;100.00;103146.78;5011163;28;20113;-76
2024/01/08 02:38:12;;;;;;;5.40;2.58;;;;;;;-2.73;100.00;103151.06;5014550;28;20037;-75
2024/01/08 02:40:37;;;;;;;5.05;2.50;;;;;;;-2.70;100.00;103150.00;5014415;28;20597;-73
2024/01/08 02:43:04;;;;;;;6.43;2.90;;;;;;;-2.72;100.00;103144.84;4977102;28;20046;-74
2024/01/08 02:45:31;;;;;;;5.90;2.15;;;;;;;-2.72;100.00;103142.22;4979789;28;20069;-74
2024/01/08 02:47:56;;;;;;;4.43;2.38;;;;;;;-2.71;100.00;103156.16;5003753;28;20501;-74
2024/01/08 02:50:22;;;;;;;3.78;2.00;;;;;;;-2.71;100.00;103159.63;4985424;28;20485;-75
2024/01/08 02:52:49;;;;;;;6.35;2.67;;;;;;;-2.71;100.00;103156.16;4973916;28;20044;-72
2024/01/08 02:55:16;;;;;;;4.75;2.50;;;;;;;-2.68;100.00;103163.81;5000686;28;20116;-74
2024/01/08 02:57:41;;;;;;;8.43;2.97;;;;;;;-2.66;100.00;103160.09;5014896;28;20084;-74
2024/01/08 03:00:08;;;;;;;4.55;2.40;;;;;;;-2.67;100.00;103163.69;4999253;28;20041;-74
2024/01/08 03:02:34;;;;;;;6.38;2.42;;;;;;;-2.67;100.00;103161.06;4998052;28;20037;-74
2024/01/08 03:05:00;;;;;;;4.55;2.38;;;;;;;-2.63;100.00;103166.91;4966168;28;20044;-74
2024/01/08 03:07:26;;;;;;;5.20;2.47;;;;;;;-2.65;100.00;103161.75;4999417;28;20048;-74
2024/01/08 03:09:56;;;;;;;5.05;2.38;;;;;;;-2.65;100.00;103159.13;4985275;28;20029;-75
2024/01/08 03:12:23;;;;;;;5.43;2.35;;;;;;;-2.63;100.00;103172.97;4984869;28;20646;-74
2024/01/08 03:14:49;;;;;;;6.30;2.63;;;;;;;-2.61;100.00;103165.00;4985045;28;20057;-75
2024/01/08 03:17:14;;;;;;;4.88;2.38;;;;;;;-2.63;100.00;103165.13;5000350;28;20045;-75
2024/01/08 03:19:40;;;;;;;5.05;1.98;;;;;;;-2.61;100.00;103176.31;4983505;28;20048;-73
2024/01/08 03:22:06;;;;;;;6.43;4.78;;;;;;;-2.60;100.00;103164.84;5028785;22;20020;-72
2024/01/08 03:24:32;;;;;;;3.60;2.03;;;;;;;-2.58;100.00;103177.84;4997247;28;20041;-73
2024/01/08 03:26:58;;;;;;;4.45;2.20;;;;;;;-2.57;100.00;103179.53;5009980;28;20468;-74
2024/01/08 03:29:23;;;;;;;4.68;1.85;;;;;;;-2.57;100.00;103177.75;4986697;28;20511;-74
2024/01/08 03:31:49;;;;;;;3.55;1.92;;;;;;;-2.56;100.00;103179.41;5006751;28;20572;-74
2024/01/08 03:34:15;;;;;;;5.07;2.03;;;;;;;-2.55;100.00;103183.69;5006218;28;20041;-74
2024/01/08 03:36:48;;;;;;;5.45;2.13;;;;;;;-2.55;100.00;103180.25;5032921;28;20130;-74
2024/01/08 03:39:15;;;;;;;6.70;1.83;;;;;;;-2.55;100.00;103173.19;5011583;28;20038;-74
2024/01/08 03:41:42;;;;;;;3.90;1.80;;;;;;;-2.53;100.00;103178.31;5010285;28;20036;-74
2024/01/08 03:44:09;;;;;;;5.10;1.83;;;;;;;-2.53;100.00;103176.53;5008303;28;20627;-74
2024/01/08 03:46:36;;;;;;;4.68;2.08;;;;;;;-2.52;100.00;103179.97;5009555;28;20033;-74
2024/01/08 03:49:03;;;;;;;2.80;1.83;;;;;;;-2.52;100.00;103177.34;5011914;28;20437;-75
2024/01/08 03:51:30;;;;;;;5.13;2.20;;;;;;;-2.52;100.00;103183.44;5024459;28;20587;-74
2024/01/08 03:53:56;;;;;;;5.05;2.13;;;;;;;-2.51;100.00;103179.88;5038728;28;20028;-74
2024/01/08 03:56:22;;;;;;;2.90;1.70;;;;;;;-2.49;100.00;103183.19;5007756;28;20045;-73
2024/01/08 03:58:47;;;;;;;4.20;2.08;;;;;;;-2.48;100.00;103182.25;5004103;28;20061;-75
2024/01/08 04:01:14;;;;;;;3.55;1.90;;;;;;;-2.47;100.00;103178.66;5044264;28;20029;-74
2024/01/08 04:03:40;;;;;;;3.60;1.58;;;;;;;-2.47;100.00;103181.28;5005481;28;20598;-74
2024/01/08 04:06:06;;;;;;;4.82;2.13;;;;;;;-2.46;100.00;103195.22;5042676;28;20036;-74
2024/01/08 04:08:32;;;;;;;3.00;1.60;;;;;;;-2.45;100.00;103185.56;5039439;28;20049;-74
2024/01/08 04:10:58;;;;;;;3.53;2.00;;;;;;;-2.44;100.00;103187.22;5028796;28;20124;-75
2024/01/08 04:13:24;;;;;;;5.43;1.63;;;;;;;-2.45;100.00;103178.53;5043934;28;20039;-75
2024/01/08 04:15:49;;;;;;;4.82;2.10;;;;;;;-2.45;100.00;103185.56;5023733;28;20029;-76
2024/01/08 04:18:17;;;;;;;4.63;2.00;;;;;;;-2.47;100.00;103186.53;5006980;28;20041;-76
2024/01/08 04:20:42;;;;;;;3.28;1.58;;;;;;;-2.44;100.00;103201.19;4995158;28;20039;-76
2024/01/08 04:23:08;;;;;;;4.50;2.13;;;;;;;-2.45;100.00;103196.88;5022291;28;20041;-74
2024/01/08 04:25:34;;;;;;;4.72;2.00;;;;;;;-2.44;100.00;103197.72;5026867;28;20064;-75
2024/01/08 04:28:00;;;;;;;3.13;1.90;;;;;;;-2.43;100.00;103199.41;5025512;28;20578;-75
2024/01/08 04:30:25;;;;;;;4.45;1.75;;;;;;;-2.43;100.00;103194.16;5026286;28;20048;-75
2024/01/08 04:32:52;;;;;;;4.63;1.85;;;;;;;-2.40;100.00;103199.16;5024190;28;20065;-74
2024/01/08 04:35:18;;;;;;;;;;;;;;;-2.39;100.00;103200.81;5033850;28;20051;-74
2024/01/08 04:37:43;;;;;;;3.80;1.90;;;;;;;-2.41;100.00;103203.56;5021988;28;19912;-75
2024/01/08 04:40:10;;;;;;;6.93;1.83;;;;;;;-2.41;100.00;103208.81;5033580;28;20033;-75
2024/01/08 04:42:36;;;;;;;3.30;1.60;;;;;;;-2.41;100.00;103208.00;5010693;28;20183;-75
2024/01/08 04:45:02;;;;;;;2.85;1.80;;;;;;;-2.40;100.00;103214.91;5009080;28;20075;-74
2024/01/08 04:47:29;;;;;;;4.70;1.50;;;;;;;-2.40;100.00;103212.28;5008563;28;20222;-75
2024/01/08 04:49:55;;;;;;;3.58;1.92;;;;;;;-2.40;100.00;103210.47;5001052;28;20542;-76
2024/01/08 04:52:20;;;;;;;3.28;1.90;;;;;;;-2.39;100.00;103222.63;5010725;28;20048;-75
2024/01/08 04:54:46;;;;;;;4.20;1.83;;;;;;;-2.39;100.00;103220.00;5025485;28;20093;-74
2024/01/08 04:57:12;;;;;;;5.15;1.88;;;;;;;-2.37;100.00;103225.13;5037482;28;20048;-75
2024/01/08 04:59:41;;;;;;;4.68;1.63;;;;;;;-2.38;100.00;103228.72;4990132;28;20157;-75
2024/01/08 05:02:08;;;;;;;3.58;1.85;;;;;;;-2.37;100.00;103235.63;5018892;28;20029;-74
2024/01/08 05:04:34;;;;;;;4.70;1.60;;;;;;;-2.38;100.00;103240.06;5037462;28;20060;-75
2024/01/08 05:07:00;;;;;;;5.68;2.05;;;;;;;-2.38;100.00;103240.06;5006050;28;20833;-74
2024/01/08 05:09:26;;;;;;;3.58;1.58;;;;;;;-2.40;100.00;103246.38;5006302;28;20037;-74
2024/01/08 05:11:51;;;;;;;3.92;2.20;;;;;;;-2.41;100.00;103247.34;5019398;28;20091;-75
2024/01/08 05:14:17;;;;;;;6.10;1.92;;;;;;;-2.37;100.00;103246.13;5005535;28;20034;-75
2024/01/08 05:16:42;;;;;;;3.67;1.60;;;;;;;-2.37;100.00;103251.38;5038652;28;20437;-74
2024/01/08 05:19:08;;;;;;;2.95;1.67;;;;;;;-2.35;100.00;103249.50;5019358;28;20064;-75
2024/01/08 05:21:34;;;;;;;5.30;1.80;;;;;;;-2.33;100.00;103242.31;5036427;28;20783;-74
2024/01/08 05:24:00;;;;;;;4.00;1.95;;;;;;;-2.31;100.00;103250.91;5036339;28;20048;-75
2024/01/08 05:26:25;;;;;;;2.33;1.45;;;;;;;-2.26;100.00;103254.00;5024327;28;20036;-76
2024/01/08 05:28:51;;;;;;;3.70;1.38;;;;;;;-2.22;100.00;103252.78;5027346;28;20036;-74
2024/01/08 05:31:17;;;;;;;2.92;1.50;;;;;;;-2.16;100.00;103264.59;5015129;28;20043;-75
2024/01/08 05:33:43;;;;;;;5.60;1.58;;;;;;;-2.16;100.00;103254.94;5012861;28;20052;-74
2024/01/08 05:36:09;;;;;;;3.03;1.50;;;;;;;-2.13;100.00;103259.09;5007497;28;20032;-75
2024/01/08 05:38:35;;;;;;;2.33;1.50;;;;;;;-2.13;100.00;103252.03;5026554;28;20057;-75
2024/01/08 05:41:01;;;;;;;4.53;1.85;;;;;;;-2.09;100.00;103260.50;5003911;28;20509;-75
2024/01/08 05:43:26;;;;;;;3.03;1.38;;;;;;;-2.06;100.00;103258.47;5036331;28;20041;-75
2024/01/08 05:45:53;;;;;;;7.00;2.13;;;;;;;-2.03;100.00;103266.09;5018353;28;20041;-75
2024/01/08 05:48:20;;;;;;;3.47;1.58;;;;;;;-2.06;100.00;103261.09;5022918;28;20142;-74
2024/01/08 05:50:46;;;;;;;3.63;1.80;;;;;;;-2.04;100.00;103258.31;5020018;28;20763;-74
2024/01/08 05:53:13;;;;;;;2.55;1.70;;;;;;;-2.02;100.00;103265.13;5034892;28;20070;-74
2024/01/08 05:55:38;;;;;;;4.25;1.60;;;;;;;-2.02;100.00;103262.50;5019851;28;20573;-74
2024/01/08 05:58:04;;;;;;;3.67;1.92;;;;;;;-1.99;100.00;103271.94;5004456;28;20784;-75
2024/01/08 06:00:30;;;;;;;3.28;1.45;;;;;;;-1.99;100.00;103267.50;5019870;28;20120;-75
2024/01/08 06:02:56;;;;;;;3.83;1.80;;;;;;;-2.01;100.00;103269.44;5007520;28;20041;-74
2024/01/08 06:05:21;;;;;;;2.92;1.35;;;;;;;-1.99;100.00;103270.13;5021312;28;20083;-74
2024/01/08 06:07:48;;;;;;;4.15;1.60;;;;;;;-1.97;100.00;103281.34;5007579;28;20717;-74
2024/01/08 06:10:14;;;;;;;2.10;1.35;;;;;;;-1.98;100.00;103274.41;5016231;28;20029;-75
2024/01/08 06:12:40;;;;;;;3.58;1.83;;;;;;;-1.98;100.00;103273.59;5024361;28;20124;-75
2024/01/08 06:15:06;;;;;;;4.45;2.15;;;;;;;-1.95;100.00;103274.19;5021446;28;20163;-75
2024/01/08 06:17:32;;;;;;;4.03;1.52;;;;;;;-1.92;100.00;103279.19;5002330;28;20082;-74
2024/01/08 06:19:58;;;;;;;2.42;1.88;;;;;;;-1.95;100.00;103281.22;5007243;28;20029;-75
2024/01/08 06:22:23;;;;;;;5.38;1.65;;;;;;;-1.94;100.00;103282.91;4988124;28;20115;-75
2024/01/08 06:24:49;;;;;;;5.03;1.60;;;;;;;-1.93;100.00;103288.03;5005791;28;20041;-75
2024/01/08 06:27:15;;;;;;;3.58;1.90;;;;;;;-1.91;100.00;103287.88;5015697;28;20574;-75
2024/01/08 06:29:41;;;;;;;3.40;1.38;;;;;;;-1.91;100.00;103301.03;5012501;28;20040;-75
2024/01/08 06:32:07;;;;;;;3.58;1.90;;;;;;;-1.93;100.00;103295.91;5024341;28;20041;-74
2024/01/08 06:34:33;;;;;;;2.60;1.48;;;;;;;-1.92;100.00;103300.19;5002605;28;20053;-75
2024/01/08 06:36:58;;;;;;;2.83;2.10;;;;;;;-1.90;100.00;103304.47;5016913;28;20052;-75
2024/01/08 06:39:26;;;;;;;2.95;1.58;;;;;;;-1.93;100.00;103302.94;5011573;28;20044;-74
2024/01/08 06:41:52;;;;;;;2.85;1.60;;;;;;;-1.92;100.00;103296.72;5024944;28;20048;-75
2024/01/08 06:44:17;;;;;;;2.55;1.50;;;;;;;-1.93;100.00;103303.78;5015487;28;20029;-76
2024/01/08 06:46:43;;;;;;;4.60;1.45;;;;;;;-1.92;100.00;103315.94;5020783;28;20039;-75
2024/01/08 06:49:09;;;;;;;3.30;1.80;;;;;;;-1.93;100.00;103306.41;5005580;28;20493;-75
2024/01/08 06:51:40;;;;;;;3.30;1.60;;;;;;;-1.94;100.00;103312.63;5017168;28;20046;-75
2024/01/08 06:54:07;;;;;;;3.55;1.80;;;;;;;-1.94;100.00;103312.63;5003999;28;20120;-75
2024/01/08 06:56:32;;;;;;;4.32;1.75;;;;;;;-1.95;100.00;103305.69;5002278;28;20478;-75
2024/01/08 06:59:01;;;;;;;3.15;1.70;;;;;;;-1.95;100.00;103315.38;5016253;28;20036;-74
2024/01/08 07:01:28;;;;;;;3.35;1.70;;;;;;;-1.95;100.00;103321.47;5019751;28;20045;-76
2024/01/08 07:03:53;;;;;;;;;;;;;;;-1.97;100.00;103328.59;5003960;28;20095;-75
2024/01/08 07:06:19;;;;;;;3.30;1.60;;;;;;;-1.97;100.00;103336.47;5004013;28;20299;-75
2024/01/08 07:08:45;;;;;;;4.93;1.42;;;;;;;-1.99;100.00;103338.41;5003538;28;20092;-75
2024/01/08 07:11:24;;;;;;;6.72;2.00;;;;;;;-2.02;100.00;103340.47;5003955;28;20036;-75
2024/01/08 07:13:51;;;;;;;2.88;1.50;;;;;;;-2.05;100.00;103331.03;5035206;28;20567;-75
2024/01/08 07:16:17;;;;;;;4.97;1.85;;;;;;;-2.03;100.00;103347.50;5003710;28;20056;-74
2024/01/08 07:18:44;;;;;;;3.65;1.70;;;;;;;-2.05;100.00;103352.03;5007351;28;20086;-75
2024/01/08 07:21:11;;;;;;;;;;;;;;;-2.07;100.00;103348.69;4989052;28;20045;-75
2024/01/08 07:23:37;;;;;;;3.55;1.50;;;;;;;-2.06;100.00;103354.78;5020219;28;19913;-75
2024/01/08 07:26:03;;;;;;;3.55;2.08;;;;;;;-2.04;100.00;103358.94;5002646;28;20040;-75
2024/01/08 07:28:29;;;;;;;3.00;1.73;;;;;;;-2.06;100.00;103366.13;5011134;28;20029;-75
2024/01/08 07:30:55;;;;;;;4.28;1.77;;;;;;;-2.07;100.00;103369.72;4990000;28;20037;-75
2024/01/08 07:33:23;;;;;;;3.45;1.70;;;;;;;-2.08;100.00;103367.22;5007234;28;20045;-75
2024/01/08 07:35:49;;;;;;;5.93;1.85;;;;;;;-2.10;100.00;103372.59;5022097;28;20128;-75
2024/01/08 07:38:15;;;;;;;4.43;1.70;;;;;;;-2.09;100.00;103374.25;5008111;28;20127;-76
2024/01/08 07:40:41;;;;;;;3.72;1.85;;;;;;;-2.11;100.00;103383.19;5028733;28;20157;-75
2024/01/08 07:43:06;;;;;;;3.25;2.10;;;;;;;-2.13;100.00;103380.69;5021620;28;20087;-75
2024/01/08 07:45:32;;;;;;;3.30;1.70;;;;;;;-2.15;100.00;103390.50;5024290;28;20044;-75
2024/01/08 07:47:58;;;;;;;2.85;1.67;;;;;;;-2.15;100.00;103387.88;5003186;28;20048;-75
2024/01/08 07:50:23;;;;;;;5.18;1.70;;;;;;;-2.17;100.00;103387.13;5003421;28;20045;-76
2024/01/08 07:52:49;;;;;;;3.45;1.73;;;;;;;-2.19;100.00;103389.06;5020472;28;20688;-77
2024/01/08 07:55:16;;;;;;;4.55;2.58;;;;;;;-2.17;100.00;103400.25;5005773;28;20541;-75
2024/01/08 07:57:41;;;;;;;;;;;;;;;-2.17;100.00;103391.56;5026067;28;20040;-75
2024/01/08 08:00:11;;;;;;;3.60;1.90;;;;;;;-2.16;100.00;103401.97;5024212;28;19971;-75
2024/01/08 08:02:37;;;;;;;4.18;1.92;;;;;;;-2.14;100.00;103410.53;5024787;28;20521;-76
2024/01/08 08:05:03;;;;;;;3.88;1.88;;;;;;;-2.13;100.00;103411.38;5038225;28;20034;-75
2024/01/08 08:07:30;;;;;;;4.50;2.35;;;;;;;-2.12;100.00;103413.88;5044437;28;20437;-75
2024/01/08 08:09:56;;;;;;;5.53;2.08;;;;;;;-2.13;100.00;103421.88;5022731;28;20031;-75
2024/01/08 08:12:21;;;;;;;4.28;2.28;;;;;;;-2.11;100.00;103418.16;5023401;28;20033;-75
2024/01/08 08:14:48;;;;;;;2.70;1.60;;;;;;;-2.09;100.00;103432.03;5025392;28;20032;-75
2024/01/08 08:17:14;;;;;;;5.15;2.30;;;;;;;-2.09;100.00;103439.91;5017382;28;20060;-75
2024/01/08 08:19:44;;;;;;;3.47;1.90;;;;;;;-2.07;100.00;103437.97;5027755;28;20414;-75
2024/01/08 08:22:14;;;;;;;3.08;2.03;;;;;;;-2.06;100.00;103444.06;5002058;28;20118;-76
2024/01/08 08:24:41;;;;;;;3.75;1.70;;;;;;;-2.06;100.00;103450.16;5003009;28;20037;-75
2024/01/08 08:27:11;;;;;;;3.65;2.30;;;;;;;-2.04;100.00;103453.47;5018168;28;20538;-75
2024/01/08 08:29:38;;;;;;;4.95;1.67;;;;;;;-2.03;100.00;103455.19;5044077;28;20025;-75
2024/01/08 08:32:04;;;;;;;4.30;1.98;;;;;;;-2.04;100.00;103457.91;5025407;28;20064;-75
2024/01/08 08:34:30;;;;;;;3.78;2.10;;;;;;;-2.03;100.00;103465.69;5021749;28;20040;-75
2024/01/08 08:36:56;;;;;;;4.40;2.00;;;;;;;-2.02;100.00;103462.09;5040483;28;20033;-75
2024/01/08 08:39:22;;;;;;;;;;;;;;;-2.04;100.00;103465.78;5023460;28;20152;-76
2024/01/08 08:41:48;;;;;;;2.85;1.73;;;;;;;-2.07;100.00;103473.91;5037960;28;20012;-76
2024/01/08 08:44:14;;;;;;;6.90;2.63;;;;;;;-2.07;100.00;103474.75;5018969;28;20040;-75
2024/01/08 08:46:40;;;;;;;4.47;2.10;;;;;;;-2.10;100.00;103484.63;5016285;28;20115;-77
2024/01/08 08:49:06;;;;;;;3.75;2.13;;;;;;;-2.12;100.00;103486.56;5022371;28;20086;-75
2024/01/08 08:51:34;;;;;;;4.07;2.10;;;;;;;-2.10;100.00;103496.00;5002094;28;20044;-75
2024/01/08 08:54:02;;;;;;;6.32;2.35;;;;;;;-2.06;100.00;103502.66;4992376;28;20064;-76
2024/01/08 08:56:28;;;;;;;3.67;1.80;;;;;;;-2.10;100.00;103496.00;5018716;28;20524;-75
2024/01/08 08:58:53;;;;;;;3.65;1.88;;;;;;;-2.10;100.00;103496.00;5012527;28;20044;-76
2024/01/08 09:01:19;;;;;;;3.40;2.33;;;;;;;-2.10;100.00;103498.63;5035639;28;20029;-77
2024/01/08 09:03:44;;;;;;;3.13;1.67;;;;;;;-2.07;100.00;103511.50;5027610;28;20037;-75
2024/01/08 09:06:10;;;;;;;4.05;2.30;;;;;;;-2.07;100.00;103503.63;5020302;28;20135;-76
2024/01/08 09:08:36;;;;;;;4.80;2.00;;;;;;;-2.02;100.00;103503.28;5041408;28;20032;-76
2024/01/08 09:11:02;;;;;;;4.45;2.10;;;;;;;-2.05;100.00;103514.84;5022092;28;20497;-76
2024/01/08 09:13:27;;;;;;;5.45;2.10;;;;;;;-2.01;100.00;103518.09;5023485;28;20406;-74
2024/01/08 09:15:53;;;;;;;4.43;2.33;;;;;;;-2.00;100.00;103517.97;5039540;28;20041;-76
2024/01/08 09:18:19;;;;;;;4.28;2.13;;;;;;;-2.00;100.00;103523.22;5029180;28;20809;-75
2024/01/08 09:20:45;;;;;;;3.85;2.13;;;;;;;-1.99;100.00;103524.03;5014053;28;20037;-74
2024/01/08 09:23:11;;;;;;;5.93;2.60;;;;;;;-1.99;100.00;103524.88;5022325;28;20494;-74
2024/01/08 09:25:36;;;;;;;3.65;1.90;;;;;;;-1.98;100.00;103537.06;5044211;28;20053;-73
2024/01/08 09:28:02;;;;;;;4.75;2.03;;;;;;;-1.98;100.00;103534.41;4989026;28;20089;-74
2024/01/08 09:30:29;;;;;;;3.90;2.15;;;;;;;-1.93;100.00;103540.16;5041655;28;20569;-74
2024/01/08 09:32:54;;;;;;;5.68;2.00;;;;;;;-1.93;100.00;103534.91;5045328;28;20075;-74
2024/01/08 09:35:20;;;;;;;4.78;2.50;;;;;;;-1.94;100.00;103543.75;5046141;28;20445;-75
2024/01/08 09:37:46;;;;;;;4.65;2.40;;;;;;;-1.92;100.00;103546.25;5036884;28;20059;-74
2024/01/08 09:40:12;;;;;;;3.33;2.15;;;;;;;-1.93;100.00;103548.03;5005857;28;20383;-74
2024/01/08 09:42:39;;;;;;;4.88;1.88;;;;;;;-1.94;100.00;103553.41;5023830;28;20660;-74
2024/01/08 09:45:10;;;;;;;5.65;2.10;;;;;;;-1.89;100.00;103550.44;5024138;28;20032;-74
2024/01/08 09:47:40;;;;;;;4.07;2.05;;;;;;;-1.83;100.00;103549.94;5007406;28;20039;-74
2024/01/08 09:50:10;;;;;;;3.35;2.03;;;;;;;-1.79;100.00;103543.50;5011918;28;20091;-73
2024/01/08 09:52:41;;;;;;;4.70;2.20;;;;;;;-1.73;100.00;103553.53;5004190;28;20045;-74
2024/01/08 09:55:09;;;;;;;4.57;2.38;;;;;;;-1.74;100.00;103549.25;5034935;28;20064;-74
2024/01/08 09:57:34;;;;;;;5.07;2.20;;;;;;;-1.72;100.00;103547.34;5006290;28;20037;-74
2024/01/08 10:00:00;;;;;;;3.65;2.08;;;;;;;-1.73;100.00;103548.28;5040381;28;20051;-74
2024/01/08 10:02:26;;;;;;;4.03;2.13;;;;;;;-1.72;100.00;103547.34;5012077;28;20057;-74
2024/01/08 10:04:52;;;;;;;6.68;2.20;;;;;;;-1.74;100.00;103544.00;5024396;28;20505;-75
2024/01/08 10:07:18;;;;;;;7.40;2.92;;;;;;;-1.75;100.00;103547.59;5020080;28;20553;-75
2024/01/08 10:09:44;;;;;;;4.05;1.60;;;;;;;-1.70;100.00;103548.03;4993395;28;20033;-75
2024/01/08 10:12:10;;;;;;;3.78;1.92;;;;;;;-1.72;100.00;103549.97;5043765;28;20029;-75
2024/01/08 10:14:37;;;;;;;2.75;1.70;;;;;;;-1.76;100.00;103551.13;5048434;28;20478;-74
2024/01/08 10:17:03;;;;;;;4.53;1.60;;;;;;;-1.73;100.00;103545.66;5017538;28;20044;-73
2024/01/08 10:19:29;;;;;;;2.92;1.60;;;;;;;-1.72;100.00;103537.66;5015474;28;20033;-74
2024/01/08 10:22:06;;;;;;;3.53;1.73;;;;;;;-1.67;100.00;103547.81;5016053;28;20063;-73
2024/01/08 10:24:31;;;;;;;3.58;1.92;;;;;;;-1.65;100.00;103551.97;5021525;28;20038;-75
2024/01/08 10:26:57;;;;;;;4.10;1.75;;;;;;;-1.62;100.00;103548.28;4991121;28;20055;-75
2024/01/08 10:29:24;;;;;;;3.72;1.90;;;;;;;-1.58;100.00;103538.38;5002562;28;20095;-75
2024/01/08 10:31:52;;;;;;;4.45;1.77;;;;;;;-1.52;100.00;103538.72;4998516;23;20041;-76
2024/01/08 10:34:18;;;;;;;5.60;2.50;;;;;;;-1.44;100.00;103528.41;4998948;28;20033;-74
2024/01/08 10:36:45;;;;;;;;;;;;;;;-1.41;100.00;103535.25;4995465;28;20793;-75
2024/01/08 10:39:11;;;;;;;3.65;1.52;;;;;;;-1.33;100.00;103532.00;4998565;28;19961;-76
2024/01/08 10:41:37;;;;;;;5.18;2.15;;;;;;;-1.26;100.00;103539.28;4990752;28;20483;-76
2024/01/08 10:44:03;;;;;;;4.93;1.63;;;;;;;-1.18;100.00;103536.03;5000213;28;20033;-75
2024/01/08 10:46:36;;;;;;;4.15;1.83;;;;;;;-1.19;100.00;103545.72;5003847;28;20041;-75
2024/01/08 10:49:06;;;;;;;4.70;2.22;;;;;;;-1.23;100.00;103543.44;5000857;28;20079;-75
2024/01/08 10:51:39;;;;;;;3.10;1.60;;;;;;;-1.18;100.00;103549.19;4999403;28;20076;-76
2024/01/08 10:54:07;;;;;;;3.05;1.50;;;;;;;-1.19;100.00;103544.88;4986799;28;20033;-75
2024/01/08 10:56:33;;;;;;;4.07;1.73;;;;;;;-1.15;100.00;103541.06;5006038;28;20034;-76
2024/01/08 10:59:09;;;;;;;3.97;1.92;;;;;;;-1.15;100.00;103541.06;4980484;28;20063;-74
2024/01/08 11:01:36;;;;;;;3.47;1.90;;;;;;;-1.16;100.00;103539.34;4998177;28;20030;-75
2024/01/08 11:04:05;;;;;;;;;;;;;;;-1.18;100.00;103539.50;5007364;28;20065;-75
2024/01/08 11:06:35;;;;;;;5.15;1.38;;;;;;;-1.23;100.00;103538.19;5007188;28;19917;-75
2024/01/08 11:09:03;;;;;;;3.15;1.60;;;;;;;-1.21;100.00;103536.28;4985353;28;20492;-75
2024/01/08 11:11:32;;;;;;;2.92;1.63;;;;;;;-1.21;100.00;103533.66;4972659;28;20295;-75
2024/01/08 11:14:03;;;;;;;3.70;1.38;;;;;;;-1.18;100.00;103536.03;5003579;28;20098;-74
2024/01/08 11:16:30;;;;;;;2.97;1.80;;;;;;;-1.08;100.00;103541.38;5003710;28;20049;-76